createdAt,value
2018-01-01T00:00:26.945Z,0
2018-01-01T00:01:07.474Z,0
2018-01-01T00:01:48.461Z,0
2018-01-01T00:02:28.789Z,0
2018-01-01T00:03:09.842Z,0
2018-01-01T00:03:50.305Z,0
2018-01-01T00:04:30.702Z,0
2018-01-01T00:05:12.269Z,0
2018-01-01T00:05:54.957Z,0
2018-01-01T00:06:35.551Z,0
2018-01-01T00:07:16.500Z,0
2018-01-01T00:07:56.670Z,0
2018-01-01T00:08:37.771Z,0
2018-01-01T00:09:18.354Z,0
2018-01-01T00:09:58.982Z,0
2018-01-01T00:10:39.537Z,0
2018-01-01T00:11:20.259Z,0
2018-01-01T00:12:00.796Z,0
2018-01-01T00:12:41.510Z,0
2018-01-01T00:13:22.848Z,0
2018-01-01T00:14:03.523Z,0
2018-01-01T00:14:44.549Z,0
2018-01-01T00:15:25.119Z,0
2018-01-01T00:16:05.448Z,0
2018-01-01T00:16:46.000Z,0
2018-01-01T00:17:26.699Z,0
2018-01-01T00:18:07.446Z,0
2018-01-01T00:18:48.232Z,0
2018-01-01T00:19:28.786Z,0
2018-01-01T00:20:09.288Z,0
2018-01-01T00:20:50.110Z,0
2018-01-01T00:21:30.647Z,0
2018-01-01T00:22:11.186Z,0
2018-01-01T00:22:52.048Z,0
2018-01-01T00:23:32.581Z,0
2018-01-01T00:24:13.167Z,0
2018-01-01T00:24:53.670Z,0
2018-01-01T00:25:34.012Z,0
2018-01-01T00:27:49.377Z,0
2018-01-01T00:28:29.900Z,0
2018-01-01T00:29:10.356Z,0
2018-01-01T00:29:50.757Z,0
2018-01-01T00:30:31.384Z,0
2018-01-01T00:31:11.815Z,0
2018-01-01T00:31:52.729Z,0
2018-01-01T00:32:33.323Z,0
2018-01-01T00:33:13.732Z,0
2018-01-01T00:33:54.274Z,0
2018-01-01T00:34:34.958Z,0
2018-01-01T00:35:15.733Z,0
2018-01-01T00:35:56.181Z,0
2018-01-01T00:36:36.674Z,0
2018-01-01T00:37:17.204Z,0
2018-01-01T00:37:57.576Z,0
2018-01-01T00:38:38.301Z,0
2018-01-01T00:39:18.758Z,0
2018-01-01T00:39:59.347Z,0
2018-01-01T00:40:39.787Z,0
2018-01-01T00:41:20.385Z,0
2018-01-01T00:42:01.195Z,0
2018-01-01T00:42:41.556Z,0
2018-01-01T00:43:22.071Z,0
2018-01-01T00:44:02.617Z,0
2018-01-01T00:44:43.011Z,0
2018-01-01T00:45:23.491Z,0
2018-01-01T00:46:04.075Z,0
2018-01-01T00:46:44.786Z,0
2018-01-01T00:47:24.957Z,0
2018-01-01T00:48:05.551Z,0
2018-01-01T00:48:46.644Z,0
2018-01-01T00:49:27.459Z,0
2018-01-01T00:50:08.029Z,0
2018-01-01T00:50:48.686Z,0
2018-01-01T00:51:29.531Z,0
2018-01-01T00:52:09.871Z,0
2018-01-01T00:52:50.267Z,0
2018-01-01T00:53:30.859Z,0
2018-01-01T00:54:11.855Z,0
2018-01-01T00:54:52.096Z,0
2018-01-01T00:55:33.134Z,0
2018-01-01T00:56:13.994Z,0
2018-01-01T00:56:54.437Z,0
2018-01-01T00:57:34.779Z,0
2018-01-01T00:58:15.433Z,0
2018-01-01T00:58:56.643Z,0
2018-01-01T00:59:37.520Z,0
2018-01-01T01:00:18.741Z,0
2018-01-01T01:00:58.733Z,0
2018-01-01T01:01:39.301Z,0
2018-01-01T01:02:20.106Z,0
2018-01-01T01:03:00.647Z,0
2018-01-01T01:03:43.497Z,0
2018-01-01T01:06:42.266Z,0
2018-01-01T01:07:22.855Z,0
2018-01-01T01:08:03.614Z,0
2018-01-01T01:08:44.012Z,0
2018-01-01T01:09:24.650Z,0
2018-01-01T01:10:05.336Z,0
2018-01-01T01:10:45.897Z,0
2018-01-01T01:11:27.381Z,0
2018-01-01T01:12:09.070Z,0
2018-01-01T01:12:49.710Z,0
2018-01-01T01:13:31.307Z,0
2018-01-01T01:14:11.343Z,0
2018-01-01T01:14:51.674Z,0
2018-01-01T01:15:32.557Z,0
2018-01-01T01:16:12.902Z,0
2018-01-01T01:16:53.436Z,0
2018-01-01T01:17:33.996Z,0
2018-01-01T01:18:14.603Z,0
2018-01-01T01:18:55.276Z,0
2018-01-01T01:19:35.547Z,0
2018-01-01T01:20:16.283Z,0
2018-01-01T01:20:58.412Z,0
2018-01-01T01:21:39.544Z,0
2018-01-01T01:22:19.900Z,0
2018-01-01T01:23:00.680Z,0
2018-01-01T01:23:41.797Z,0
2018-01-01T01:24:22.346Z,0
2018-01-01T01:25:02.804Z,0
2018-01-01T01:25:44.263Z,0
2018-01-01T01:26:24.933Z,0
2018-01-01T01:27:05.954Z,0
2018-01-01T01:27:46.798Z,0
2018-01-01T01:28:27.926Z,0
2018-01-01T01:29:07.936Z,0
2018-01-01T01:29:48.714Z,0
2018-01-01T01:30:29.232Z,0
2018-01-01T01:31:09.785Z,0
2018-01-01T01:31:50.413Z,0
2018-01-01T01:32:31.866Z,0
2018-01-01T01:33:12.235Z,0
2018-01-01T01:33:52.710Z,0
2018-01-01T01:34:33.401Z,0
2018-01-01T01:35:13.692Z,0
2018-01-01T01:35:54.787Z,0
2018-01-01T01:36:34.962Z,0
2018-01-01T01:37:15.456Z,0
2018-01-01T01:37:56.164Z,0
2018-01-01T01:38:37.276Z,0
2018-01-01T01:39:17.978Z,0
2018-01-01T01:39:59.018Z,0
2018-01-01T01:40:40.577Z,0
2018-01-01T01:41:22.503Z,0
2018-01-01T01:42:03.040Z,0
2018-01-01T01:42:45.836Z,0
2018-01-01T01:43:26.787Z,0
2018-01-01T01:44:07.130Z,0
2018-01-01T01:44:47.837Z,0
2018-01-01T01:45:28.883Z,0
2018-01-01T01:46:09.337Z,0
2018-01-01T01:46:50.060Z,0
2018-01-01T01:47:31.266Z,0
2018-01-01T01:48:11.206Z,0
2018-01-01T01:48:52.346Z,0
2018-01-01T01:49:33.521Z,0
2018-01-01T01:50:14.115Z,0
2018-01-01T01:50:55.139Z,0
2018-01-01T01:51:35.092Z,0
2018-01-01T01:52:15.790Z,0
2018-01-01T01:56:58.765Z,0
2018-01-01T01:57:39.464Z,0
2018-01-01T01:58:19.805Z,0
2018-01-01T01:59:00.742Z,0
2018-01-01T01:59:41.132Z,0
2018-01-01T02:00:22.021Z,0
2018-01-01T02:01:02.465Z,0
2018-01-01T02:01:43.170Z,0
2018-01-01T02:04:02.804Z,0
2018-01-01T02:04:43.872Z,0
2018-01-01T02:05:24.299Z,0
2018-01-01T02:06:04.981Z,0
2018-01-01T02:06:46.067Z,0
2018-01-01T02:07:27.651Z,0
2018-01-01T02:08:08.086Z,0
2018-01-01T02:08:48.786Z,0
2018-01-01T02:09:29.470Z,0
2018-01-01T02:10:09.792Z,0
2018-01-01T02:10:50.217Z,0
2018-01-01T02:11:31.003Z,0
2018-01-01T02:12:11.371Z,0
2018-01-01T02:12:51.768Z,0
2018-01-01T02:13:32.208Z,0
2018-01-01T02:14:12.740Z,0
2018-01-01T02:14:53.097Z,0
2018-01-01T02:15:33.589Z,0
2018-01-01T02:16:14.048Z,0
2018-01-01T02:16:54.840Z,0
2018-01-01T02:17:35.766Z,0
2018-01-01T02:18:16.486Z,0
2018-01-01T02:18:56.825Z,0
2018-01-01T02:19:37.283Z,0
2018-01-01T02:20:17.964Z,0
2018-01-01T02:20:58.989Z,0
2018-01-01T02:21:38.884Z,0
2018-01-01T02:22:19.365Z,0
2018-01-01T02:23:00.227Z,0
2018-01-01T02:23:41.173Z,0
2018-01-01T02:24:21.734Z,0
2018-01-01T02:25:02.653Z,0
2018-01-01T02:25:43.043Z,0
2018-01-01T02:26:23.838Z,0
2018-01-01T02:27:04.275Z,0
2018-01-01T02:27:44.821Z,0
2018-01-01T02:28:25.418Z,0
2018-01-01T02:29:06.265Z,0
2018-01-01T02:29:47.153Z,0
2018-01-01T02:30:27.676Z,0
2018-01-01T02:31:08.184Z,0
2018-01-01T02:31:48.673Z,0
2018-01-01T02:32:29.315Z,0
2018-01-01T02:33:09.900Z,0
2018-01-01T02:33:50.557Z,0
2018-01-01T02:34:31.128Z,0
2018-01-01T02:35:11.790Z,0
2018-01-01T02:35:52.500Z,0
2018-01-01T02:36:33.155Z,0
2018-01-01T02:37:13.534Z,0
2018-01-01T02:37:53.964Z,0
2018-01-01T02:38:34.412Z,0
2018-01-01T02:39:14.847Z,0
2018-01-01T02:39:55.341Z,0
2018-01-01T02:40:35.804Z,0
2018-01-01T02:41:16.531Z,0
2018-01-01T02:41:57.004Z,0
2018-01-01T02:42:37.720Z,0
2018-01-01T02:43:18.264Z,0
2018-01-01T02:43:58.799Z,0
2018-01-01T02:44:39.319Z,0
2018-01-01T02:45:19.782Z,0
2018-01-01T02:46:00.293Z,0
2018-01-01T02:46:40.716Z,0
2018-01-01T02:47:21.410Z,0
2018-01-01T02:48:01.829Z,0
2018-01-01T02:48:42.107Z,0
2018-01-01T02:49:23.271Z,0
2018-01-01T02:50:03.701Z,0
2018-01-01T02:50:44.066Z,0
2018-01-01T02:51:24.696Z,0
2018-01-01T02:52:05.068Z,0
2018-01-01T02:52:45.477Z,0
2018-01-01T02:53:26.461Z,0
2018-01-01T02:54:06.834Z,0
2018-01-01T02:54:47.361Z,0
2018-01-01T02:55:27.766Z,0
2018-01-01T02:56:08.600Z,0
2018-01-01T02:56:48.979Z,0
2018-01-01T02:57:29.695Z,0
2018-01-01T02:58:10.270Z,0
2018-01-01T02:58:50.612Z,0
2018-01-01T02:59:31.231Z,0
2018-01-01T03:00:11.627Z,0
2018-01-01T03:00:52.096Z,0
2018-01-01T03:01:32.643Z,0
2018-01-01T03:02:13.142Z,0
2018-01-01T03:02:54.156Z,0
2018-01-01T03:03:34.659Z,0
2018-01-01T03:04:15.798Z,0
2018-01-01T03:04:56.262Z,0
2018-01-01T03:05:36.759Z,0
2018-01-01T03:06:17.158Z,0
2018-01-01T03:06:57.543Z,0
2018-01-01T03:07:37.997Z,0
2018-01-01T03:08:18.466Z,0
2018-01-01T03:08:59.083Z,0
2018-01-01T03:09:39.389Z,0
2018-01-01T03:10:19.933Z,0
2018-01-01T03:11:00.563Z,0
2018-01-01T03:11:41.035Z,0
2018-01-01T03:12:21.480Z,0
2018-01-01T03:13:02.328Z,0
2018-01-01T03:13:42.701Z,0
2018-01-01T03:14:23.400Z,0
2018-01-01T03:15:04.041Z,0
2018-01-01T03:15:44.791Z,0
2018-01-01T03:16:25.266Z,0
2018-01-01T03:17:05.773Z,0
2018-01-01T03:17:46.411Z,0
2018-01-01T03:18:26.820Z,0
2018-01-01T03:19:07.309Z,0
2018-01-01T03:19:48.178Z,0
2018-01-01T03:20:28.211Z,0
2018-01-01T03:21:08.657Z,0
2018-01-01T03:21:49.942Z,0
2018-01-01T03:22:30.642Z,0
2018-01-01T03:23:10.947Z,0
2018-01-01T03:23:51.351Z,0
2018-01-01T03:24:32.195Z,0
2018-01-01T03:25:12.798Z,0
2018-01-01T03:25:54.156Z,0
2018-01-01T03:26:34.600Z,0
2018-01-01T03:27:15.140Z,0
2018-01-01T03:27:56.416Z,0
2018-01-01T03:28:36.334Z,0
2018-01-01T03:29:16.959Z,0
2018-01-01T03:29:57.551Z,0
2018-01-01T03:30:38.004Z,0
2018-01-01T03:31:18.464Z,0
2018-01-01T03:31:59.526Z,0
2018-01-01T03:32:39.904Z,0
2018-01-01T03:33:20.388Z,0
2018-01-01T03:34:00.785Z,0
2018-01-01T03:34:41.203Z,0
2018-01-01T03:35:21.710Z,0
2018-01-01T03:36:02.351Z,0
2018-01-01T03:36:42.726Z,0
2018-01-01T03:37:23.423Z,0
2018-01-01T03:38:04.411Z,0
2018-01-01T03:38:45.236Z,0
2018-01-01T03:39:25.864Z,0
2018-01-01T03:40:06.525Z,0
2018-01-01T03:40:46.888Z,0
2018-01-01T03:41:27.852Z,0
2018-01-01T03:42:08.507Z,0
2018-01-01T03:42:49.091Z,0
2018-01-01T03:43:29.871Z,0
2018-01-01T03:44:10.222Z,0
2018-01-01T03:44:50.645Z,0
2018-01-01T03:45:31.144Z,0
2018-01-01T03:48:15.411Z,0
2018-01-01T03:48:56.097Z,0
2018-01-01T03:49:36.471Z,0
2018-01-01T03:50:16.926Z,0
2018-01-01T03:50:57.377Z,0
2018-01-01T03:51:38.236Z,0
2018-01-01T03:52:18.959Z,0
2018-01-01T03:52:59.469Z,0
2018-01-01T03:53:40.015Z,0
2018-01-01T03:54:20.679Z,0
2018-01-01T03:55:01.511Z,0
2018-01-01T03:55:43.889Z,0
2018-01-01T03:56:24.375Z,0
2018-01-01T03:57:05.096Z,0
2018-01-01T03:57:45.786Z,0
2018-01-01T03:58:27.189Z,0
2018-01-01T03:59:07.570Z,0
2018-01-01T03:59:48.289Z,0
2018-01-01T04:00:29.098Z,0
2018-01-01T04:01:09.765Z,0
2018-01-01T04:01:49.947Z,0
2018-01-01T04:02:30.692Z,0
2018-01-01T04:03:11.309Z,0
2018-01-01T04:45:49.423Z,0
2018-01-01T04:46:34.563Z,0
2018-01-01T04:47:22.788Z,0
2018-01-01T04:48:04.879Z,0
2018-01-01T04:48:48.337Z,0
2018-01-01T04:49:33.202Z,0
2018-01-01T04:50:13.640Z,0
2018-01-01T04:50:53.952Z,0
2018-01-01T04:51:38.721Z,0
2018-01-01T04:52:21.416Z,0
2018-01-01T04:53:04.836Z,0
2018-01-01T04:53:45.516Z,0
2018-01-01T04:54:27.374Z,0
2018-01-01T04:55:11.545Z,0
2018-01-01T04:55:55.786Z,0
2018-01-01T04:56:36.222Z,0
2018-01-01T04:57:16.607Z,0
2018-01-01T04:57:57.101Z,0
2018-01-01T04:58:39.338Z,0
2018-01-01T04:59:23.526Z,0
2018-01-01T05:01:37.801Z,0
2018-01-01T05:02:18.115Z,0
2018-01-01T05:02:58.690Z,0
2018-01-01T05:03:39.220Z,0
2018-01-01T05:04:19.641Z,0
2018-01-01T05:05:00.216Z,0
2018-01-01T05:05:41.389Z,0
2018-01-01T05:06:21.853Z,0
2018-01-01T05:07:02.191Z,0
2018-01-01T05:07:42.567Z,0
2018-01-01T05:08:23.309Z,0
2018-01-01T05:09:03.863Z,0
2018-01-01T05:09:44.723Z,0
2018-01-01T05:10:25.294Z,0
2018-01-01T05:11:05.845Z,0
2018-01-01T05:11:46.638Z,0
2018-01-01T05:12:27.051Z,0
2018-01-01T05:13:07.505Z,0
2018-01-01T05:13:48.319Z,0
2018-01-01T05:14:28.924Z,0
2018-01-01T05:15:09.370Z,0
2018-01-01T05:15:50.160Z,0
2018-01-01T05:16:30.731Z,0
2018-01-01T05:17:11.584Z,0
2018-01-01T05:17:52.526Z,0
2018-01-01T05:18:32.694Z,0
2018-01-01T05:19:13.347Z,0
2018-01-01T05:19:54.059Z,0
2018-01-01T05:20:35.054Z,0
2018-01-01T05:21:15.525Z,0
2018-01-01T05:21:55.903Z,0
2018-01-01T05:22:36.765Z,0
2018-01-01T05:23:17.358Z,0
2018-01-01T05:23:57.861Z,0
2018-01-01T05:24:38.306Z,0
2018-01-01T05:25:18.841Z,0
2018-01-01T05:25:59.389Z,0
2018-01-01T05:26:40.216Z,0
2018-01-01T05:27:20.632Z,0
2018-01-01T05:28:01.961Z,0
2018-01-01T05:28:42.854Z,0
2018-01-01T05:29:23.111Z,0
2018-01-01T05:30:03.826Z,0
2018-01-01T05:30:44.537Z,0
2018-01-01T05:31:25.220Z,0
2018-01-01T05:32:05.898Z,0
2018-01-01T05:32:46.511Z,0
2018-01-01T05:33:26.755Z,0
2018-01-01T05:34:07.465Z,0
2018-01-01T05:34:47.751Z,0
2018-01-01T05:35:28.190Z,0
2018-01-01T05:36:08.673Z,0
2018-01-01T05:36:49.103Z,0
2018-01-01T05:37:29.681Z,0
2018-01-01T05:38:10.815Z,0
2018-01-01T05:38:51.919Z,0
2018-01-01T05:39:32.725Z,0
2018-01-01T05:40:13.234Z,0
2018-01-01T05:40:53.691Z,0
2018-01-01T05:41:34.133Z,0
2018-01-01T05:42:14.622Z,0
2018-01-01T05:42:55.070Z,0
2018-01-01T05:43:35.781Z,0
2018-01-01T05:44:16.938Z,0
2018-01-01T05:44:58.015Z,0
2018-01-01T05:45:38.015Z,0
2018-01-01T05:46:18.574Z,0
2018-01-01T05:46:59.184Z,0
2018-01-01T05:47:40.386Z,0
2018-01-01T05:48:20.833Z,0
2018-01-01T05:49:01.528Z,0
2018-01-01T05:49:42.007Z,0
2018-01-01T05:50:22.306Z,0
2018-01-01T05:51:03.345Z,0
2018-01-01T05:51:43.801Z,0
2018-01-01T05:52:24.115Z,0
2018-01-01T05:53:04.628Z,0
2018-01-01T05:53:45.065Z,0
2018-01-01T05:54:26.091Z,0
2018-01-01T05:55:06.540Z,0
2018-01-01T05:55:47.328Z,0
2018-01-01T05:56:27.841Z,0
2018-01-01T05:57:08.160Z,0
2018-01-01T05:57:48.861Z,0
2018-01-01T05:58:29.527Z,0
2018-01-01T05:59:09.942Z,0
2018-01-01T05:59:50.515Z,0
2018-01-01T06:00:30.993Z,0
2018-01-01T06:01:13.976Z,0
2018-01-01T06:01:53.711Z,0
2018-01-01T06:02:34.404Z,0
2018-01-01T06:03:14.988Z,0
2018-01-01T06:03:55.763Z,0
2018-01-01T06:04:36.533Z,0
2018-01-01T06:05:16.788Z,0
2018-01-01T06:05:57.784Z,0
2018-01-01T06:06:38.105Z,0
2018-01-01T06:07:18.732Z,0
2018-01-01T06:07:59.372Z,0
2018-01-01T06:08:39.813Z,0
2018-01-01T06:11:14.281Z,0
2018-01-01T06:11:54.942Z,0
2018-01-01T06:12:35.435Z,0
2018-01-01T06:13:15.800Z,0
2018-01-01T06:13:56.435Z,0
2018-01-01T06:14:37.040Z,0
2018-01-01T06:15:18.085Z,0
2018-01-01T06:15:58.250Z,0
2018-01-01T06:16:38.691Z,0
2018-01-01T06:17:19.616Z,0
2018-01-01T06:20:39.808Z,0
2018-01-01T06:21:20.775Z,0
2018-01-01T06:22:01.477Z,0
2018-01-01T06:22:42.072Z,0
2018-01-01T06:23:23.423Z,0
2018-01-01T06:24:04.108Z,0
2018-01-01T06:24:45.507Z,0
2018-01-01T06:25:25.999Z,0
2018-01-01T06:26:06.687Z,0
2018-01-01T06:28:38.558Z,0
2018-01-01T06:29:19.028Z,0
2018-01-01T06:29:59.525Z,0
2018-01-01T06:30:39.968Z,0
2018-01-01T06:31:20.433Z,0
2018-01-01T06:32:01.514Z,0
2018-01-01T06:32:42.251Z,0
2018-01-01T06:33:22.914Z,0
2018-01-01T06:34:03.644Z,0
2018-01-01T06:34:43.920Z,0
2018-01-01T06:35:24.446Z,0
2018-01-01T06:36:05.052Z,0
2018-01-01T06:36:46.656Z,0
2018-01-01T06:37:27.213Z,0
2018-01-01T06:38:10.337Z,0
2018-01-01T06:40:53.724Z,0
2018-01-01T06:41:34.029Z,0
2018-01-01T06:42:14.628Z,0
2018-01-01T06:42:55.864Z,0
2018-01-01T06:43:35.958Z,0
2018-01-01T06:44:17.111Z,0
2018-01-01T06:44:57.255Z,0
2018-01-01T06:45:38.381Z,0
2018-01-01T06:46:19.570Z,0
2018-01-01T06:47:00.385Z,0
2018-01-01T06:47:40.715Z,0
2018-01-01T06:48:21.114Z,0
2018-01-01T06:49:01.457Z,0
2018-01-01T06:49:41.865Z,0
2018-01-01T06:50:22.391Z,0
2018-01-01T06:51:03.176Z,0
2018-01-01T06:51:44.454Z,0
2018-01-01T06:52:25.373Z,0
2018-01-01T06:53:05.977Z,0
2018-01-01T06:53:47.347Z,0
2018-01-01T06:54:28.095Z,0
2018-01-01T06:55:09.216Z,0
2018-01-01T06:55:49.603Z,0
2018-01-01T06:56:30.573Z,0
2018-01-01T06:57:12.631Z,0
2018-01-01T06:57:52.877Z,0
2018-01-01T06:58:33.404Z,0
2018-01-01T06:59:14.111Z,0
2018-01-01T06:59:54.828Z,0
2018-01-01T07:00:35.950Z,0
2018-01-01T07:01:16.314Z,0
2018-01-01T07:01:57.393Z,0
2018-01-01T07:02:38.455Z,0
2018-01-01T07:03:19.073Z,0
2018-01-01T07:03:59.489Z,0
2018-01-01T07:04:40.289Z,0
2018-01-01T07:05:21.707Z,0
2018-01-01T07:06:02.070Z,0
2018-01-01T07:06:42.599Z,0
2018-01-01T07:07:23.451Z,0
2018-01-01T07:08:03.988Z,0
2018-01-01T07:08:44.678Z,0
2018-01-01T07:09:25.369Z,0
2018-01-01T07:10:05.635Z,0
2018-01-01T07:10:46.200Z,0
2018-01-01T07:11:26.969Z,0
2018-01-01T07:12:07.286Z,0
2018-01-01T07:12:48.555Z,0
2018-01-01T07:13:29.138Z,0
2018-01-01T07:14:09.511Z,0
2018-01-01T07:14:50.148Z,0
2018-01-01T07:15:30.988Z,0
2018-01-01T07:16:11.332Z,0
2018-01-01T07:16:52.154Z,0
2018-01-01T07:17:32.973Z,0
2018-01-01T07:18:14.298Z,0
2018-01-01T07:18:54.639Z,0
2018-01-01T07:19:35.535Z,0
2018-01-01T07:20:15.945Z,0
2018-01-01T07:20:56.383Z,0
2018-01-01T07:21:36.764Z,0
2018-01-01T07:22:17.389Z,0
2018-01-01T07:22:58.224Z,0
2018-01-01T07:23:38.627Z,0
2018-01-01T07:24:19.532Z,0
2018-01-01T07:25:00.728Z,0
2018-01-01T07:25:41.672Z,0
2018-01-01T07:26:22.016Z,0
2018-01-01T07:27:02.514Z,0
2018-01-01T07:27:42.929Z,0
2018-01-01T07:28:23.895Z,0
2018-01-01T07:29:03.977Z,0
2018-01-01T07:29:45.726Z,0
2018-01-01T07:30:26.907Z,0
2018-01-01T07:31:06.646Z,0
2018-01-01T07:31:47.362Z,0
2018-01-01T07:32:28.763Z,0
2018-01-01T07:33:09.202Z,0
2018-01-01T07:33:49.729Z,0
2018-01-01T07:34:30.218Z,0
2018-01-01T07:35:10.866Z,0
2018-01-01T07:35:51.401Z,0
2018-01-01T07:36:31.942Z,0
2018-01-01T07:37:13.202Z,0
2018-01-01T07:37:53.492Z,0
2018-01-01T07:38:34.007Z,0
2018-01-01T07:39:15.096Z,0
2018-01-01T07:39:55.562Z,0
2018-01-01T07:40:36.136Z,0
2018-01-01T07:41:16.492Z,0
2018-01-01T07:41:57.068Z,0
2018-01-01T07:42:37.523Z,0
2018-01-01T07:43:18.499Z,0
2018-01-01T07:43:59.279Z,0
2018-01-01T07:44:39.796Z,0
2018-01-01T07:45:21.696Z,0
2018-01-01T07:46:02.065Z,0
2018-01-01T07:46:42.646Z,0
2018-01-01T07:47:23.296Z,0
2018-01-01T07:48:05.423Z,0
2018-01-01T07:48:45.879Z,0
2018-01-01T07:49:26.640Z,0
2018-01-01T07:50:06.956Z,0
2018-01-01T07:50:47.352Z,0
2018-01-01T07:51:28.248Z,0
2018-01-01T07:52:08.212Z,0
2018-01-01T07:52:48.822Z,5
2018-01-01T07:53:29.317Z,5
2018-01-01T07:54:09.963Z,5
2018-01-01T07:54:50.365Z,5
2018-01-01T07:55:31.600Z,5
2018-01-01T07:56:12.449Z,5
2018-01-01T07:56:52.885Z,5
2018-01-01T07:57:34.230Z,5
2018-01-01T07:58:14.402Z,5
2018-01-01T07:58:55.084Z,5
2018-01-01T07:59:35.705Z,5
2018-01-01T08:00:16.444Z,5
2018-01-01T08:00:57.279Z,5
2018-01-01T08:01:37.675Z,5
2018-01-01T08:02:18.304Z,5
2018-01-01T08:02:59.159Z,5
2018-01-01T08:03:40.161Z,5
2018-01-01T08:04:20.418Z,5
2018-01-01T08:05:01.188Z,5
2018-01-01T08:05:41.944Z,5
2018-01-01T08:06:22.461Z,5
2018-01-01T08:07:03.057Z,5
2018-01-01T08:07:43.573Z,5
2018-01-01T08:08:24.069Z,5
2018-01-01T08:09:05.038Z,0
2018-01-01T08:09:45.284Z,0
2018-01-01T08:10:25.720Z,0
2018-01-01T08:11:06.754Z,0
2018-01-01T08:11:47.691Z,0
2018-01-01T08:12:28.408Z,0
2018-01-01T08:13:09.528Z,0
2018-01-01T08:13:49.606Z,0
2018-01-01T08:14:30.082Z,0
2018-01-01T08:15:10.549Z,0
2018-01-01T08:15:51.101Z,0
2018-01-01T08:16:31.347Z,0
2018-01-01T08:17:11.904Z,0
2018-01-01T08:17:52.265Z,0
2018-01-01T08:18:33.161Z,0
2018-01-01T08:19:13.941Z,0
2018-01-01T08:19:54.887Z,0
2018-01-01T08:20:36.040Z,0
2018-01-01T08:21:16.547Z,0
2018-01-01T08:21:56.996Z,0
2018-01-01T08:22:37.476Z,0
2018-01-01T08:23:18.092Z,0
2018-01-01T08:23:58.660Z,0
2018-01-01T08:24:39.909Z,0
2018-01-01T08:25:20.979Z,0
2018-01-01T08:26:01.299Z,0
2018-01-01T08:26:42.883Z,0
2018-01-01T08:27:23.694Z,0
2018-01-01T08:28:04.051Z,0
2018-01-01T08:28:44.421Z,0
2018-01-01T08:29:25.454Z,0
2018-01-01T08:30:05.914Z,0
2018-01-01T08:30:46.434Z,0
2018-01-01T08:31:26.792Z,0
2018-01-01T08:32:07.935Z,0
2018-01-01T08:32:48.287Z,0
2018-01-01T08:33:29.598Z,0
2018-01-01T08:34:10.023Z,0
2018-01-01T08:34:51.033Z,0
2018-01-01T08:35:31.739Z,0
2018-01-01T08:36:12.652Z,0
2018-01-01T08:36:53.754Z,0
2018-01-01T08:37:33.401Z,0
2018-01-01T08:38:13.960Z,0
2018-01-01T08:38:54.430Z,0
2018-01-01T08:39:35.281Z,0
2018-01-01T08:40:15.631Z,0
2018-01-01T08:40:56.179Z,0
2018-01-01T08:41:37.145Z,0
2018-01-01T08:42:17.784Z,0
2018-01-01T08:42:58.076Z,0
2018-01-01T08:43:38.686Z,0
2018-01-01T08:44:20.644Z,0
2018-01-01T08:45:01.094Z,0
2018-01-01T08:45:41.378Z,0
2018-01-01T08:46:22.883Z,5
2018-01-01T08:47:04.019Z,5
2018-01-01T08:47:44.457Z,5
2018-01-01T08:48:25.836Z,5
2018-01-01T08:49:08.197Z,0
2018-01-01T08:49:48.880Z,0
2018-01-01T08:50:30.107Z,0
2018-01-01T08:51:11.192Z,0
2018-01-01T08:51:51.696Z,0
2018-01-01T08:52:32.301Z,0
2018-01-01T08:53:14.242Z,0
2018-01-01T08:53:53.773Z,0
2018-01-01T08:54:34.314Z,0
2018-01-01T08:55:14.693Z,0
2018-01-01T08:55:55.168Z,5
2018-01-01T08:56:35.879Z,5
2018-01-01T08:57:16.347Z,5
2018-01-01T08:58:00.955Z,5
2018-01-01T08:58:42.073Z,5
2018-01-01T08:59:23.095Z,10
2018-01-01T09:00:03.324Z,10
2018-01-01T09:00:44.234Z,10
2018-01-01T09:01:25.339Z,10
2018-01-01T09:02:05.916Z,10
2018-01-01T09:02:46.636Z,10
2018-01-01T09:03:29.348Z,10
2018-01-01T09:04:09.165Z,10
2018-01-01T09:04:50.621Z,5
2018-01-01T09:05:31.200Z,5
2018-01-01T09:06:12.076Z,5
2018-01-01T09:06:56.033Z,5
2018-01-01T09:07:37.658Z,5
2018-01-01T09:08:19.275Z,5
2018-01-01T09:09:00.043Z,5
2018-01-01T09:09:40.488Z,10
2018-01-01T09:10:21.171Z,10
2018-01-01T09:11:04.447Z,10
2018-01-01T09:11:44.918Z,10
2018-01-01T09:12:26.236Z,15
2018-01-01T09:13:06.794Z,15
2018-01-01T09:13:47.423Z,15
2018-01-01T09:14:28.676Z,10
2018-01-01T09:15:09.676Z,10
2018-01-01T09:15:50.105Z,10
2018-01-01T09:16:30.664Z,15
2018-01-01T09:17:11.051Z,15
2018-01-01T09:17:51.677Z,15
2018-01-01T09:18:32.011Z,15
2018-01-01T09:19:12.781Z,20
2018-01-01T09:19:54.159Z,20
2018-01-01T09:20:34.491Z,20
2018-01-01T09:21:15.022Z,20
2018-01-01T09:21:55.424Z,20
2018-01-01T09:22:35.800Z,35
2018-01-01T09:23:16.398Z,30
2018-01-01T09:23:56.999Z,25
2018-01-01T09:24:37.946Z,25
2018-01-01T09:25:18.404Z,35
2018-01-01T09:25:58.646Z,25
2018-01-01T09:26:39.133Z,40
2018-01-01T09:27:20.175Z,40
2018-01-01T09:28:00.532Z,40
2018-01-01T09:28:40.972Z,40
2018-01-01T09:29:21.441Z,40
2018-01-01T09:30:01.743Z,40
2018-01-01T09:30:42.164Z,40
2018-01-01T09:31:22.772Z,40
2018-01-01T09:32:03.534Z,40
2018-01-01T09:32:43.960Z,40
2018-01-01T09:33:24.289Z,40
2018-01-01T09:34:07.045Z,40
2018-01-01T09:34:47.867Z,40
2018-01-01T09:35:28.249Z,40
2018-01-01T09:36:09.053Z,40
2018-01-01T09:36:50.238Z,40
2018-01-01T09:37:30.806Z,40
2018-01-01T09:38:11.402Z,40
2018-01-01T09:38:51.702Z,40
2018-01-01T09:39:32.112Z,40
2018-01-01T09:40:12.526Z,40
2018-01-01T09:40:54.667Z,40
2018-01-01T09:41:35.028Z,40
2018-01-01T09:42:17.765Z,40
2018-01-01T09:42:58.148Z,40
2018-01-01T09:43:38.730Z,40
2018-01-01T09:44:19.829Z,40
2018-01-01T09:45:00.385Z,40
2018-01-01T09:45:40.708Z,40
2018-01-01T09:46:21.815Z,40
2018-01-01T09:47:02.035Z,40
2018-01-01T09:47:43.019Z,40
2018-01-01T09:48:23.138Z,40
2018-01-01T09:49:03.791Z,40
2018-01-01T09:49:44.338Z,45
2018-01-01T09:50:24.922Z,45
2018-01-01T09:51:05.605Z,40
2018-01-01T09:51:46.322Z,40
2018-01-01T09:52:26.642Z,40
2018-01-01T09:53:07.144Z,40
2018-01-01T09:55:42.927Z,40
2018-01-01T09:56:23.574Z,40
2018-01-01T09:57:04.263Z,40
2018-01-01T09:57:44.920Z,40
2018-01-01T09:58:25.874Z,40
2018-01-01T09:59:06.466Z,40
2018-01-01T09:59:46.914Z,40
2018-01-01T10:00:27.627Z,40
2018-01-01T10:01:08.351Z,40
2018-01-01T10:01:49.017Z,40
2018-01-01T10:02:30.050Z,40
2018-01-01T10:03:11.356Z,40
2018-01-01T10:03:51.627Z,40
2018-01-01T10:41:46.974Z,35
2018-01-01T10:42:27.701Z,45
2018-01-01T10:43:08.067Z,45
2018-01-01T10:43:48.920Z,45
2018-01-01T10:44:29.263Z,45
2018-01-01T10:45:10.290Z,45
2018-01-01T10:45:50.683Z,45
2018-01-01T10:46:31.289Z,45
2018-01-01T10:47:11.705Z,45
2018-01-01T10:47:52.218Z,45
2018-01-01T10:48:32.656Z,45
2018-01-01T10:49:13.222Z,45
2018-01-01T10:49:53.764Z,30
2018-01-01T10:50:34.121Z,25
2018-01-01T10:51:14.577Z,30
2018-01-01T10:51:55.019Z,45
2018-01-01T10:52:35.580Z,45
2018-01-01T10:53:16.360Z,45
2018-01-01T10:53:56.782Z,45
2018-01-01T10:54:38.095Z,45
2018-01-01T10:55:18.607Z,45
2018-01-01T10:55:59.128Z,45
2018-01-01T10:56:39.587Z,45
2018-01-01T10:57:20.208Z,45
2018-01-01T10:58:00.706Z,45
2018-01-01T10:58:41.852Z,45
2018-01-01T10:59:22.808Z,45
2018-01-01T11:00:03.319Z,45
2018-01-01T11:00:43.683Z,45
2018-01-01T11:01:24.122Z,45
2018-01-01T11:02:05.040Z,45
2018-01-01T11:02:45.412Z,45
2018-01-01T11:03:25.791Z,45
2018-01-01T11:04:06.406Z,45
2018-01-01T11:04:47.254Z,45
2018-01-01T11:05:27.585Z,45
2018-01-01T11:06:08.094Z,45
2018-01-01T11:06:48.902Z,45
2018-01-01T11:07:29.222Z,45
2018-01-01T11:08:09.659Z,45
2018-01-01T11:08:50.047Z,45
2018-01-01T11:09:30.990Z,45
2018-01-01T11:20:29.639Z,45
2018-01-01T11:21:13.631Z,45
2018-01-01T11:21:55.568Z,45
2018-01-01T11:22:38.662Z,45
2018-01-01T11:23:19.989Z,45
2018-01-01T11:24:00.221Z,45
2018-01-01T11:24:40.694Z,45
2018-01-01T11:25:23.935Z,45
2018-01-01T11:26:05.467Z,45
2018-01-01T11:26:45.995Z,45
2018-01-01T11:27:26.479Z,45
2018-01-01T11:28:10.646Z,30
2018-01-01T11:28:50.450Z,30
2018-01-01T11:29:30.745Z,45
2018-01-01T11:30:11.291Z,45
2018-01-01T11:30:51.782Z,45
2018-01-01T11:31:36.035Z,45
2018-01-01T11:32:16.379Z,45
2018-01-01T11:32:59.079Z,45
2018-01-01T11:33:41.802Z,40
2018-01-01T11:34:22.208Z,45
2018-01-01T11:35:02.878Z,45
2018-01-01T11:35:46.017Z,45
2018-01-01T11:36:28.982Z,35
2018-01-01T11:37:11.257Z,45
2018-01-01T11:37:54.094Z,45
2018-01-01T11:38:39.482Z,45
2018-01-01T11:39:23.313Z,50
2018-01-01T11:40:06.504Z,50
2018-01-01T11:40:49.064Z,50
2018-01-01T11:41:32.951Z,50
2018-01-01T11:42:13.602Z,50
2018-01-01T11:42:54.350Z,50
2018-01-01T11:43:36.118Z,50
2018-01-01T11:44:18.229Z,40
2018-01-01T11:45:01.537Z,50
2018-01-01T11:45:42.085Z,50
2018-01-01T11:46:28.887Z,45
2018-01-01T11:47:13.401Z,45
2018-01-01T11:47:53.786Z,45
2018-01-01T11:48:34.830Z,45
2018-01-01T11:49:18.242Z,45
2018-01-01T11:52:37.424Z,45
2018-01-01T11:53:17.971Z,45
2018-01-01T11:53:58.591Z,40
2018-01-01T11:54:38.638Z,40